createdAt,value
2017-12-22T00:00:29.411Z,5.64
2017-12-22T00:01:39.356Z,5.61
2017-12-22T00:02:49.305Z,5.54
2017-12-22T00:03:59.259Z,5.59
2017-12-22T00:05:08.973Z,5.61
2017-12-22T00:06:18.678Z,5.59
2017-12-22T00:07:28.361Z,5.56
2017-12-22T00:08:38.048Z,5.62
2017-12-22T00:09:47.737Z,5.56
2017-12-22T00:10:57.399Z,5.55
2017-12-22T00:12:07.346Z,5.55
2017-12-22T00:13:17.367Z,5.56
2017-12-22T00:14:27.328Z,5.58
2017-12-22T00:15:37.024Z,5.55
2017-12-22T00:16:46.718Z,5.55
2017-12-22T00:17:55.901Z,5.56
2017-12-22T00:19:05.860Z,5.54
2017-12-22T00:20:15.548Z,5.54
2017-12-22T00:21:25.249Z,5.55
2017-12-22T00:22:35.206Z,5.52
2017-12-22T00:23:44.378Z,5.58
2017-12-22T00:24:54.365Z,5.58
2017-12-22T00:26:03.801Z,5.58
2017-12-22T00:27:13.239Z,5.58
2017-12-22T00:28:22.942Z,5.52
2017-12-22T00:29:32.383Z,5.58
2017-12-22T00:30:42.359Z,5.54
2017-12-22T00:31:52.090Z,5.55
2017-12-22T00:33:01.811Z,5.52
2017-12-22T00:34:11.511Z,5.54
2017-12-22T00:35:21.202Z,5.49
2017-12-22T00:36:30.386Z,5.55
2017-12-22T00:37:39.824Z,5.44
2017-12-22T00:38:49.517Z,5.49
2017-12-22T00:39:59.203Z,5.46
2017-12-22T00:41:08.904Z,5.51
2017-12-22T00:42:18.852Z,5.51
2017-12-22T00:43:28.548Z,5.47
2017-12-22T00:44:37.982Z,5.49
2017-12-22T00:45:47.945Z,5.49
2017-12-22T00:46:57.890Z,5.41
2017-12-22T00:48:07.831Z,5.47
2017-12-22T00:49:17.794Z,5.43
2017-12-22T00:50:27.747Z,5.44
2017-12-22T00:51:37.720Z,5.49
2017-12-22T00:52:47.436Z,5.44
2017-12-22T00:53:56.888Z,5.46
2017-12-22T00:55:06.343Z,5.46
2017-12-22T00:56:16.300Z,5.43
2017-12-22T00:57:26.263Z,5.46
2017-12-22T00:58:36.208Z,5.47
2017-12-22T00:59:45.898Z,5.43
2017-12-22T01:00:55.353Z,5.43
2017-12-22T01:02:05.296Z,5.46
2017-12-22T01:03:14.987Z,5.49
2017-12-22T01:04:24.429Z,5.44
2017-12-22T01:05:34.397Z,5.44
2017-12-22T01:06:44.334Z,5.49
2017-12-22T01:07:54.019Z,5.49
2017-12-22T01:09:04.003Z,5.47
2017-12-22T01:10:13.443Z,5.49
2017-12-22T01:11:23.396Z,5.47
2017-12-22T01:12:33.090Z,5.44
2017-12-22T01:13:43.052Z,5.46
2017-12-22T01:14:53.004Z,5.47
2017-12-22T01:16:02.707Z,5.41
2017-12-22T01:17:12.712Z,5.46
2017-12-22T01:18:22.409Z,5.44
2017-12-22T01:19:32.098Z,5.46
2017-12-22T01:20:42.060Z,5.47
2017-12-22T01:21:51.487Z,5.44
2017-12-22T01:23:01.178Z,5.38
2017-12-22T01:24:11.119Z,5.49
2017-12-22T01:25:21.085Z,5.46
2017-12-22T01:26:30.832Z,5.46
2017-12-22T01:27:40.537Z,5.44
2017-12-22T01:28:50.230Z,5.43
2017-12-22T01:30:00.191Z,5.47
2017-12-22T01:31:09.625Z,5.41
2017-12-22T01:32:19.321Z,5.44
2017-12-22T01:33:29.284Z,5.52
2017-12-22T01:34:39.238Z,5.44
2017-12-22T01:35:48.939Z,5.43
2017-12-22T01:36:58.886Z,5.47
2017-12-22T01:38:08.842Z,5.44
2017-12-22T01:39:18.524Z,5.52
2017-12-22T01:40:28.225Z,5.56
2017-12-22T01:41:37.685Z,5.56
2017-12-22T01:42:47.632Z,5.52
2017-12-22T01:43:57.573Z,5.58
2017-12-22T01:45:07.266Z,5.47
2017-12-22T01:46:16.697Z,5.55
2017-12-22T01:47:26.130Z,5.59
2017-12-22T01:48:36.085Z,5.55
2017-12-22T01:49:46.048Z,5.55
2017-12-22T01:50:55.750Z,5.59
2017-12-22T01:52:05.186Z,5.61
2017-12-22T01:53:14.885Z,5.61
2017-12-22T01:54:24.570Z,5.61
2017-12-22T01:55:34.518Z,5.67
2017-12-22T01:56:44.209Z,5.59
2017-12-22T01:57:54.160Z,5.59
2017-12-22T01:59:04.111Z,5.58
2017-12-22T02:00:14.075Z,5.61
2017-12-22T02:01:23.755Z,5.65
2017-12-22T02:02:33.696Z,5.69
2017-12-22T02:03:43.394Z,5.64
2017-12-22T02:04:53.077Z,5.67
2017-12-22T02:06:02.240Z,5.61
2017-12-22T02:07:12.189Z,5.72
2017-12-22T02:08:22.209Z,5.59
2017-12-22T02:09:31.903Z,5.67
2017-12-22T02:10:41.603Z,5.7
2017-12-22T02:11:51.293Z,5.67
2017-12-22T02:13:00.723Z,5.72
2017-12-22T02:14:10.403Z,5.69
2017-12-22T02:15:20.357Z,5.67
2017-12-22T02:16:29.780Z,5.67
2017-12-22T02:17:39.730Z,5.62
2017-12-22T02:18:48.906Z,5.67
2017-12-22T02:19:58.598Z,5.76
2017-12-22T02:21:08.282Z,5.69
2017-12-22T02:22:17.713Z,5.69
2017-12-22T02:23:27.398Z,5.62
2017-12-22T02:24:37.091Z,5.62
2017-12-22T02:25:46.779Z,5.73
2017-12-22T02:26:56.479Z,5.67
2017-12-22T02:28:06.164Z,5.67
2017-12-22T02:29:15.850Z,5.64
2017-12-22T02:30:25.799Z,5.69
2017-12-22T02:31:34.976Z,5.67
2017-12-22T02:32:44.930Z,5.76
2017-12-22T02:33:54.870Z,5.77
2017-12-22T02:35:04.829Z,5.65
2017-12-22T02:36:13.750Z,5.76
2017-12-22T02:37:23.447Z,5.69
2017-12-22T02:38:33.161Z,5.73
2017-12-22T02:39:42.604Z,5.69
2017-12-22T02:40:52.573Z,5.74
2017-12-22T02:42:02.573Z,5.7
2017-12-22T02:43:12.027Z,5.64
2017-12-22T02:44:21.465Z,5.69
2017-12-22T02:45:31.430Z,5.8
2017-12-22T02:46:41.372Z,5.67
2017-12-22T02:47:51.319Z,5.72
2017-12-22T02:49:00.797Z,5.72
2017-12-22T02:50:10.482Z,5.67
2017-12-22T02:51:20.172Z,5.62
2017-12-22T02:52:29.608Z,5.77
2017-12-22T02:53:39.306Z,5.58
2017-12-22T02:54:48.750Z,5.77
2017-12-22T02:55:58.692Z,5.76
2017-12-22T02:57:08.658Z,5.8
2017-12-22T02:58:18.628Z,5.67
2017-12-22T02:59:28.581Z,5.69
2017-12-22T03:00:38.525Z,5.69
2017-12-22T03:01:48.216Z,5.69
2017-12-22T03:02:57.645Z,5.77
2017-12-22T03:04:07.582Z,5.65
2017-12-22T03:05:17.277Z,5.8
2017-12-22T03:06:26.969Z,5.72
2017-12-22T03:07:36.663Z,5.72
2017-12-22T03:08:46.346Z,5.73
2017-12-22T03:09:55.777Z,5.74
2017-12-22T03:11:05.484Z,5.73
2017-12-22T03:12:15.432Z,5.7
2017-12-22T03:13:25.382Z,5.72
2017-12-22T03:14:34.831Z,5.72
2017-12-22T03:15:44.792Z,5.73
2017-12-22T03:16:54.225Z,5.7
2017-12-22T03:18:03.923Z,5.72
2017-12-22T03:19:13.868Z,5.72
2017-12-22T03:20:23.585Z,5.81
2017-12-22T03:21:33.541Z,5.7
2017-12-22T03:22:43.485Z,5.79
2017-12-22T03:23:53.183Z,5.7
2017-12-22T03:25:02.867Z,5.72
2017-12-22T03:26:12.301Z,5.72
2017-12-22T03:27:21.981Z,5.73
2017-12-22T03:28:31.947Z,5.77
2017-12-22T03:29:41.393Z,5.79
2017-12-22T03:30:50.829Z,5.72
2017-12-22T03:32:00.791Z,5.72
2017-12-22T03:33:10.741Z,5.73
2017-12-22T03:34:20.426Z,5.76
2017-12-22T03:35:30.114Z,5.81
2017-12-22T03:36:39.546Z,5.77
2017-12-22T03:37:48.983Z,5.76
2017-12-22T03:38:58.982Z,5.74
2017-12-22T03:40:08.928Z,5.81
2017-12-22T03:41:18.620Z,5.84
2017-12-22T03:42:28.314Z,5.79
2017-12-22T03:43:38.012Z,5.8
2017-12-22T03:44:47.988Z,5.8
2017-12-22T03:45:57.433Z,5.83
2017-12-22T03:47:07.120Z,5.87
2017-12-22T03:48:16.554Z,5.92
2017-12-22T03:49:26.256Z,5.88
2017-12-22T03:50:36.208Z,5.84
2017-12-22T03:51:46.169Z,5.84
2017-12-22T03:52:55.595Z,5.87
2017-12-22T03:54:05.022Z,5.84
2017-12-22T03:55:14.970Z,5.84
2017-12-22T03:56:24.977Z,5.81
2017-12-22T03:57:34.924Z,5.95
2017-12-22T03:58:44.613Z,5.92
2017-12-22T03:59:54.329Z,5.84
2017-12-22T04:01:04.278Z,5.95
2017-12-22T04:02:13.974Z,5.94
2017-12-22T04:03:23.960Z,5.94
2017-12-22T04:04:33.909Z,5.97
2017-12-22T04:05:43.870Z,5.97
2017-12-22T04:06:53.777Z,6.02
2017-12-22T04:08:03.213Z,5.97
2017-12-22T04:09:12.655Z,6.02
2017-12-22T04:10:22.596Z,6.01
2017-12-22T04:11:32.277Z,5.99
2017-12-22T04:12:42.232Z,6.09
2017-12-22T04:13:51.930Z,6.1
2017-12-22T04:15:01.893Z,6.07
2017-12-22T04:16:11.340Z,6.13
2017-12-22T04:17:21.298Z,6.12
2017-12-22T04:18:31.258Z,6.1
2017-12-22T04:19:41.212Z,6.13
2017-12-22T04:20:50.959Z,6.02
2017-12-22T04:22:00.657Z,6.22
2017-12-22T04:23:10.601Z,6.16
2017-12-22T04:24:20.562Z,6.15
2017-12-22T04:25:30.666Z,6.12
2017-12-22T04:26:40.351Z,6.15
2017-12-22T04:27:50.052Z,6.17
2017-12-22T04:28:59.992Z,6.13
2017-12-22T04:30:09.184Z,6.17
2017-12-22T04:31:18.614Z,6.12
2017-12-22T04:32:28.055Z,6.1
2017-12-22T04:33:37.747Z,6.19
2017-12-22T04:34:47.444Z,6.17
2017-12-22T04:35:57.138Z,6.32
2017-12-22T04:37:06.826Z,6.22
2017-12-22T04:38:16.529Z,6.17
2017-12-22T04:39:26.473Z,6.28
2017-12-22T04:40:36.437Z,6.16
2017-12-22T04:41:46.388Z,6.29
2017-12-22T04:42:56.336Z,6.28
2017-12-22T04:44:06.297Z,6.34
2017-12-22T04:45:15.718Z,6.28
2017-12-22T04:46:25.164Z,6.31
2017-12-22T04:47:35.117Z,6.32
2017-12-22T04:48:44.816Z,6.32
2017-12-22T04:49:54.522Z,6.28
2017-12-22T04:51:04.209Z,6.28
2017-12-22T04:52:14.159Z,6.32
2017-12-22T04:53:24.116Z,6.34
2017-12-22T04:54:34.092Z,6.25
2017-12-22T04:55:44.033Z,6.28
2017-12-22T04:56:53.985Z,6.26
2017-12-22T04:58:03.677Z,6.28
2017-12-22T04:59:13.364Z,6.29
2017-12-22T05:00:22.798Z,6.29
2017-12-22T05:01:32.771Z,6.29
2017-12-22T05:02:42.550Z,6.28
2017-12-22T05:03:52.507Z,6.28
2017-12-22T05:05:02.460Z,6.32
2017-12-22T05:06:12.157Z,6.35
2017-12-22T05:07:22.108Z,6.28
2017-12-22T05:08:31.794Z,6.36
2017-12-22T05:09:41.223Z,6.32
2017-12-22T05:10:51.164Z,6.43
2017-12-22T05:12:00.084Z,6.36
2017-12-22T05:13:09.774Z,6.43
2017-12-22T05:14:19.469Z,6.38
2017-12-22T05:15:29.227Z,6.35
2017-12-22T05:16:38.936Z,6.38
2017-12-22T05:17:48.890Z,6.44
2017-12-22T05:18:58.581Z,6.36
2017-12-22T05:20:08.011Z,6.43
2017-12-22T05:21:17.672Z,6.39
2017-12-22T05:22:27.367Z,6.36
2017-12-22T05:23:37.312Z,6.36
2017-12-22T05:24:47.317Z,6.35
2017-12-22T05:25:57.022Z,6.39
2017-12-22T05:27:06.454Z,6.44
2017-12-22T05:28:16.415Z,6.39
2017-12-22T05:29:26.113Z,6.41
2017-12-22T05:30:36.112Z,6.34
2017-12-22T05:31:45.547Z,6.41
2017-12-22T05:32:55.239Z,6.41
2017-12-22T05:34:04.924Z,6.53
2017-12-22T05:35:14.912Z,6.36
2017-12-22T05:36:24.610Z,6.41
2017-12-22T05:37:34.303Z,6.36
2017-12-22T05:38:43.735Z,6.38
2017-12-22T05:39:53.428Z,6.41
2017-12-22T05:41:03.129Z,6.5
2017-12-22T05:42:13.067Z,6.5
2017-12-22T05:43:22.505Z,6.44
2017-12-22T05:44:31.942Z,6.53
2017-12-22T05:45:41.396Z,6.53
2017-12-22T05:46:51.091Z,6.38
2017-12-22T05:48:01.108Z,6.47
2017-12-22T05:49:11.102Z,6.38
2017-12-22T05:50:20.545Z,6.44
2017-12-22T05:51:30.247Z,6.47
2017-12-22T05:52:39.943Z,6.46
2017-12-22T05:53:49.118Z,6.38
2017-12-22T05:54:58.553Z,6.47
2017-12-22T05:56:08.513Z,6.38
2017-12-22T05:57:18.208Z,6.46
2017-12-22T05:58:27.385Z,6.34
2017-12-22T05:59:37.075Z,6.39
2017-12-22T06:00:46.759Z,6.38
2017-12-22T06:01:56.200Z,6.32
2017-12-22T06:03:06.145Z,6.43
2017-12-22T06:04:16.106Z,6.38
2017-12-22T06:05:26.061Z,6.47
2017-12-22T06:06:36.001Z,6.36
2017-12-22T06:07:45.701Z,6.32
2017-12-22T06:08:55.667Z,6.46
2017-12-22T06:10:05.168Z,6.47
2017-12-22T06:11:14.860Z,6.35
2017-12-22T06:12:24.547Z,6.41
2017-12-22T06:13:34.248Z,6.39
2017-12-22T06:14:44.220Z,6.43
2017-12-22T06:15:54.186Z,6.41
2017-12-22T06:17:03.888Z,6.39
2017-12-22T06:18:13.859Z,6.39
2017-12-22T06:19:23.289Z,6.47
2017-12-22T06:20:32.732Z,6.39
2017-12-22T06:21:42.701Z,6.46
2017-12-22T06:22:52.413Z,6.44
2017-12-22T06:24:02.151Z,6.52
2017-12-22T06:25:12.132Z,6.46
2017-12-22T06:26:22.086Z,6.47
2017-12-22T06:27:31.514Z,6.53
2017-12-22T06:28:41.219Z,6.47
2017-12-22T06:29:50.917Z,6.43
2017-12-22T06:31:00.862Z,6.36
2017-12-22T06:32:10.582Z,6.47
2017-12-22T06:33:20.549Z,6.41
2017-12-22T06:34:29.978Z,6.49
2017-12-22T06:35:39.927Z,6.38
2017-12-22T06:36:49.364Z,6.47
2017-12-22T06:37:59.323Z,6.49
2017-12-22T06:39:09.020Z,6.46
2017-12-22T06:40:18.726Z,6.46
2017-12-22T06:41:28.677Z,6.46
2017-12-22T06:42:38.625Z,6.36
2017-12-22T06:43:48.052Z,6.49
2017-12-22T06:44:58.008Z,6.49
2017-12-22T06:46:07.948Z,6.34
2017-12-22T06:47:17.404Z,6.38
2017-12-22T06:48:27.354Z,6.47
2017-12-22T06:49:36.790Z,6.44
2017-12-22T06:50:46.731Z,6.49
2017-12-22T06:51:56.722Z,6.49
2017-12-22T06:53:06.156Z,6.53
2017-12-22T06:54:16.116Z,6.49
2017-12-22T06:55:25.805Z,6.36
2017-12-22T06:56:35.755Z,6.53
2017-12-22T06:57:45.714Z,6.47
2017-12-22T06:58:55.692Z,6.36
2017-12-22T07:00:05.388Z,6.39
2017-12-22T07:01:15.357Z,6.39
2017-12-22T07:02:25.054Z,6.43
2017-12-22T07:03:34.742Z,6.41
2017-12-22T07:04:44.736Z,6.46
2017-12-22T07:05:54.690Z,6.47
2017-12-22T07:07:04.379Z,6.38
2017-12-22T07:08:14.068Z,6.47
2017-12-22T07:09:23.278Z,6.43
2017-12-22T07:10:32.980Z,6.46
2017-12-22T07:11:42.923Z,6.39
2017-12-22T07:12:52.872Z,6.35
2017-12-22T07:14:02.567Z,6.39
2017-12-22T07:15:12.517Z,6.34
2017-12-22T07:16:22.204Z,6.38
2017-12-22T07:17:32.168Z,6.35
2017-12-22T07:18:42.139Z,6.39
2017-12-22T07:19:51.838Z,6.41
2017-12-22T07:21:01.534Z,6.36
2017-12-22T07:22:11.493Z,6.36
2017-12-22T07:23:21.465Z,6.38
2017-12-22T07:24:31.421Z,6.43
2017-12-22T07:25:41.116Z,6.39
2017-12-22T07:26:50.542Z,6.41
2017-12-22T07:28:00.244Z,6.46
2017-12-22T07:29:09.949Z,6.38
2017-12-22T07:30:19.381Z,6.35
2017-12-22T07:31:29.329Z,6.36
2017-12-22T07:32:39.276Z,6.34
2017-12-22T07:33:49.245Z,6.35
2017-12-22T07:34:58.952Z,6.35
2017-12-22T07:36:08.911Z,6.44
2017-12-22T07:37:18.349Z,6.35
2017-12-22T07:38:27.793Z,6.39
2017-12-22T07:39:37.485Z,6.41
2017-12-22T07:40:47.180Z,6.38
2017-12-22T07:41:56.875Z,6.47
2017-12-22T07:43:06.833Z,6.41
2017-12-22T07:44:16.793Z,6.36
2017-12-22T07:45:26.750Z,6.43
2017-12-22T07:46:36.462Z,6.34
2017-12-22T07:47:46.154Z,6.38
2017-12-22T07:48:56.110Z,6.36
2017-12-22T07:50:05.537Z,6.38
2017-12-22T07:51:15.232Z,6.41
2017-12-22T07:52:24.917Z,6.43
2017-12-22T07:53:34.872Z,6.43
2017-12-22T07:54:44.831Z,6.35
2017-12-22T07:55:54.539Z,6.41
2017-12-22T07:57:04.489Z,6.35
2017-12-22T07:58:13.915Z,6.36
2017-12-22T07:59:23.614Z,6.29
2017-12-22T08:00:33.316Z,6.36
2017-12-22T08:01:42.753Z,6.38
2017-12-22T08:02:52.724Z,6.43
2017-12-22T08:04:02.439Z,6.41
2017-12-22T08:05:12.395Z,6.46
2017-12-22T08:06:22.358Z,6.41
2017-12-22T08:07:32.043Z,6.38
2017-12-22T08:08:41.742Z,6.36
2017-12-22T08:09:51.696Z,6.38
2017-12-22T08:11:01.669Z,6.31
2017-12-22T08:12:11.646Z,6.39
2017-12-22T08:13:21.337Z,6.36
2017-12-22T08:14:31.033Z,6.46
2017-12-22T08:15:40.727Z,6.43
2017-12-22T08:16:50.682Z,6.49
2017-12-22T08:18:00.640Z,6.47
2017-12-22T08:19:10.333Z,6.46
2017-12-22T08:20:20.285Z,6.38
2017-12-22T08:21:29.727Z,6.44
2017-12-22T08:22:39.422Z,6.38
2017-12-22T08:23:48.857Z,6.47
2017-12-22T08:24:58.290Z,6.43
2017-12-22T08:26:08.236Z,6.46
2017-12-22T08:27:18.195Z,6.41
2017-12-22T08:28:28.160Z,6.41
2017-12-22T08:29:38.118Z,6.36
2017-12-22T08:30:47.561Z,6.41
2017-12-22T08:31:57.259Z,6.38
2017-12-22T08:33:06.705Z,6.35
2017-12-22T08:34:16.190Z,6.35
2017-12-22T08:35:25.368Z,6.36
2017-12-22T08:36:34.816Z,6.47
2017-12-22T08:37:44.511Z,6.38
2017-12-22T08:38:53.960Z,6.38
2017-12-22T08:40:03.667Z,6.36
2017-12-22T08:41:13.103Z,6.41
2017-12-22T08:42:22.811Z,6.46
2017-12-22T08:43:32.505Z,6.47
2017-12-22T08:44:42.196Z,6.5
2017-12-22T08:45:51.897Z,6.52
2017-12-22T08:47:01.601Z,6.53
2017-12-22T08:48:11.039Z,6.56
2017-12-22T08:49:20.765Z,6.54
2017-12-22T08:50:30.517Z,6.54
2017-12-22T08:51:40.211Z,6.54
2017-12-22T08:52:49.912Z,6.59
2017-12-22T08:53:59.876Z,6.57
2017-12-22T08:55:09.609Z,6.53
2017-12-22T08:56:19.325Z,6.56
2017-12-22T08:57:29.272Z,6.57
2017-12-22T08:58:39.226Z,6.65
2017-12-22T08:59:49.185Z,6.56
2017-12-22T09:00:59.143Z,6.68
2017-12-22T09:02:08.596Z,6.59
2017-12-22T09:03:18.561Z,6.65
2017-12-22T09:04:28.269Z,6.68
2017-12-22T09:05:37.984Z,6.68
2017-12-22T09:06:47.934Z,6.74
2017-12-22T09:07:57.887Z,6.74
2017-12-22T09:09:07.855Z,6.62
2017-12-22T09:10:17.829Z,6.65
2017-12-22T09:11:27.779Z,6.59
2017-12-22T09:12:36.969Z,6.57
2017-12-22T09:13:46.931Z,6.65
2017-12-22T09:14:56.902Z,6.75
2017-12-22T09:16:06.871Z,6.7
2017-12-22T09:17:16.578Z,6.64
2017-12-22T09:18:26.271Z,6.7
2017-12-22T09:19:35.968Z,6.71
2017-12-22T09:20:45.924Z,6.64
2017-12-22T09:21:55.623Z,6.7
2017-12-22T09:23:05.572Z,6.67
2017-12-22T09:24:15.268Z,6.72
2017-12-22T09:25:24.952Z,6.7
2017-12-22T09:26:34.756Z,6.67
2017-12-22T09:27:44.729Z,6.68
2017-12-22T09:28:54.426Z,6.67
2017-12-22T09:30:03.613Z,6.71
2017-12-22T09:31:13.356Z,6.74
2017-12-22T09:32:23.061Z,6.78
2017-12-22T09:33:32.498Z,6.87
2017-12-22T09:34:42.201Z,6.83
2017-12-22T09:35:51.740Z,6.82
2017-12-22T09:37:01.778Z,6.85
2017-12-22T09:38:11.519Z,6.87
2017-12-22T09:39:21.475Z,6.87
2017-12-22T09:40:31.469Z,6.86
2017-12-22T09:41:40.952Z,6.89
2017-12-22T09:42:50.975Z,6.87
2017-12-22T09:44:00.676Z,6.85
2017-12-22T09:45:10.639Z,6.86
2017-12-22T09:46:20.100Z,6.87
2017-12-22T09:47:30.122Z,6.87
2017-12-22T09:48:40.107Z,6.8
2017-12-22T09:49:49.616Z,6.87
2017-12-22T09:50:59.599Z,6.87
2017-12-22T09:52:09.621Z,6.85
2017-12-22T09:53:19.586Z,6.78
2017-12-22T09:54:29.045Z,6.87
2017-12-22T09:55:39.007Z,6.87
2017-12-22T09:56:49.035Z,6.85
2017-12-22T09:57:58.833Z,6.86
2017-12-22T09:59:08.538Z,6.86
2017-12-22T10:00:18.232Z,6.87
2017-12-22T10:01:27.941Z,6.89
2017-12-22T10:02:37.894Z,6.86
2017-12-22T10:03:47.860Z,6.89
2017-12-22T10:04:57.871Z,6.85
2017-12-22T10:06:07.838Z,6.83
2017-12-22T10:07:17.803Z,6.87
2017-12-22T10:08:27.509Z,6.87
2017-12-22T10:09:37.266Z,6.89
2017-12-22T10:10:46.976Z,6.96
2017-12-22T10:11:56.671Z,6.87
2017-12-22T10:13:06.629Z,6.92
2017-12-22T10:14:16.341Z,6.86
2017-12-22T10:15:26.311Z,6.8
2017-12-22T10:16:36.050Z,6.92
2017-12-22T10:17:45.804Z,6.89
2017-12-22T10:18:55.763Z,6.87
2017-12-22T10:20:05.461Z,6.93
2017-12-22T10:21:14.907Z,6.89
2017-12-22T10:22:24.345Z,6.86
2017-12-22T10:23:34.040Z,6.86
2017-12-22T10:24:43.740Z,6.87
2017-12-22T10:25:53.196Z,6.93
2017-12-22T10:27:02.632Z,6.95
2017-12-22T10:28:12.578Z,6.93
2017-12-22T10:29:22.285Z,6.92
2017-12-22T10:30:32.270Z,6.96
2017-12-22T10:31:42.241Z,6.93
2017-12-22T10:32:51.949Z,6.96
2017-12-22T10:34:01.381Z,6.95
2017-12-22T10:35:10.838Z,6.93
2017-12-22T10:36:20.798Z,6.9
2017-12-22T10:37:30.519Z,6.96
2017-12-22T10:38:40.236Z,6.97
2017-12-22T10:39:49.957Z,7.01
2017-12-22T10:40:59.924Z,6.95
2017-12-22T10:42:09.895Z,6.85
2017-12-22T10:43:19.854Z,6.95
2017-12-22T10:44:29.812Z,6.92
2017-12-22T10:45:39.783Z,6.89
2017-12-22T10:46:49.254Z,6.95
2017-12-22T10:47:59.213Z,6.97
2017-12-22T10:49:09.178Z,6.92
2017-12-22T10:50:18.870Z,6.86
2017-12-22T10:51:28.578Z,6.83
2017-12-22T10:52:37.757Z,6.9
2017-12-22T10:53:47.469Z,6.86
2017-12-22T10:54:57.441Z,6.85
2017-12-22T10:56:07.126Z,6.72
2017-12-22T10:57:17.093Z,6.8
2017-12-22T10:58:26.785Z,6.74
2017-12-22T10:59:36.482Z,6.72
2017-12-22T11:00:46.462Z,6.72
2017-12-22T11:01:56.158Z,6.7
2017-12-22T11:03:06.168Z,6.72
2017-12-22T11:04:16.376Z,6.65
2017-12-22T11:05:26.081Z,6.74
2017-12-22T11:06:35.788Z,6.72
2017-12-22T11:07:45.477Z,6.77
2017-12-22T11:08:55.448Z,6.77
2017-12-22T11:10:04.894Z,6.75
2017-12-22T11:11:14.335Z,6.83
2017-12-22T11:12:24.043Z,6.75
2017-12-22T11:13:33.735Z,6.87
2017-12-22T11:14:43.711Z,6.9
2017-12-22T11:15:53.177Z,6.83
2017-12-22T11:17:02.873Z,6.86
2017-12-22T11:18:12.837Z,6.95
2017-12-22T11:19:22.538Z,6.96
2017-12-22T11:20:32.244Z,7.01
2017-12-22T11:21:41.419Z,7.05
2017-12-22T11:22:51.130Z,7.05
2017-12-22T11:24:01.117Z,7.01
2017-12-22T11:25:11.090Z,7.05
2017-12-22T11:26:20.791Z,7.07
2017-12-22T11:27:30.232Z,7.05
2017-12-22T11:28:40.192Z,7.04
2017-12-22T11:29:49.908Z,7.04
2017-12-22T11:30:59.627Z,7.05
2017-12-22T11:32:09.596Z,7.03
2017-12-22T11:33:19.561Z,7.11
2017-12-22T11:34:29.509Z,7.15
2017-12-22T11:35:38.991Z,7.14
2017-12-22T11:36:48.978Z,7.07
2017-12-22T11:37:58.935Z,7.03
2017-12-22T11:39:08.638Z,7.08
2017-12-22T11:40:18.590Z,7.08
2017-12-22T11:41:28.542Z,7.11
2017-12-22T11:42:38.514Z,7.14
2017-12-22T11:43:48.224Z,7.14
2017-12-22T11:44:58.188Z,7.18
2017-12-22T11:46:07.628Z,7.1
2017-12-22T11:47:17.325Z,7.14
2017-12-22T11:48:27.286Z,7.22
2017-12-22T11:49:37.010Z,7.21
2017-12-22T11:50:46.970Z,7.15
2017-12-22T11:51:56.700Z,7.18
2017-12-22T11:53:06.813Z,7.19
2017-12-22T11:54:16.517Z,7.18
2017-12-22T11:55:26.213Z,7.25
2017-12-22T11:56:35.904Z,7.28
2017-12-22T11:57:45.876Z,7.33
2017-12-22T11:58:55.852Z,7.23
2017-12-22T12:00:05.552Z,7.32
2017-12-22T12:01:15.261Z,7.18
2017-12-22T12:02:25.218Z,7.28
2017-12-22T12:03:34.143Z,7.15
2017-12-22T12:04:43.843Z,7.32
2017-12-22T12:05:53.540Z,7.23
2017-12-22T12:07:03.247Z,7.19
2017-12-22T12:08:12.681Z,7.28
2017-12-22T12:09:22.126Z,7.23
2017-12-22T12:10:31.823Z,7.23
2017-12-22T12:11:41.511Z,7.37
2017-12-22T12:12:51.225Z,7.28
2017-12-22T12:14:00.917Z,7.31
2017-12-22T12:15:10.870Z,7.31
2017-12-22T12:16:20.844Z,7.33
2017-12-22T12:17:30.815Z,7.29
2017-12-22T12:18:40.782Z,7.32
2017-12-22T12:19:50.743Z,7.28
2017-12-22T12:20:59.926Z,7.32
2017-12-22T12:22:09.888Z,7.32
2017-12-22T12:23:19.592Z,7.32
2017-12-22T12:24:29.546Z,7.31
2017-12-22T12:25:39.530Z,7.29
2017-12-22T12:26:48.975Z,7.31
2017-12-22T12:27:58.147Z,7.36
2017-12-22T12:29:08.112Z,7.25
2017-12-22T12:30:18.073Z,7.28
2017-12-22T12:31:27.773Z,7.31
2017-12-22T12:32:37.744Z,7.33
2017-12-22T12:33:47.479Z,7.37
2017-12-22T12:34:57.226Z,7.36
2017-12-22T12:36:07.178Z,7.36
2017-12-22T12:37:17.136Z,7.36
2017-12-22T12:38:27.098Z,7.33
2017-12-22T12:39:37.046Z,7.25
2017-12-22T12:40:46.737Z,7.33
2017-12-22T12:41:55.910Z,7.47
2017-12-22T12:43:05.607Z,7.58
2017-12-22T12:44:15.551Z,7.64
2017-12-22T12:45:24.997Z,7.66
2017-12-22T12:46:34.711Z,7.66
2017-12-22T12:47:43.900Z,7.62
2017-12-22T12:48:53.877Z,7.62
2017-12-22T12:50:03.896Z,7.61
2017-12-22T12:51:13.854Z,7.59
2017-12-22T12:52:23.557Z,7.64
2017-12-22T12:53:33.020Z,7.59
2017-12-22T12:54:42.201Z,7.61
2017-12-22T12:55:51.649Z,7.62
2017-12-22T12:57:01.354Z,7.66
2017-12-22T12:58:11.049Z,7.66
2017-12-22T12:59:20.748Z,7.61
2017-12-22T13:00:30.200Z,7.58
2017-12-22T13:01:39.914Z,7.61
2017-12-22T13:02:49.356Z,7.61
2017-12-22T13:03:59.064Z,7.64
2017-12-22T13:05:08.792Z,7.56
2017-12-22T13:06:18.511Z,7.64
2017-12-22T13:07:27.962Z,7.59
2017-12-22T13:08:37.403Z,7.58
2017-12-22T13:09:46.855Z,7.62
2017-12-22T13:10:56.566Z,7.56
2017-12-22T13:12:06.587Z,7.53
2017-12-22T13:13:16.038Z,7.48
2017-12-22T13:14:25.739Z,7.51
2017-12-22T13:15:35.682Z,7.44
2017-12-22T13:16:45.124Z,7.41
2017-12-22T13:17:54.823Z,7.51
2017-12-22T13:19:04.523Z,7.56
2017-12-22T13:20:14.481Z,7.51
2017-12-22T13:21:24.452Z,7.46
2017-12-22T13:22:34.414Z,7.46
2017-12-22T13:23:44.121Z,7.44
2017-12-22T13:24:54.090Z,7.47
2017-12-22T13:26:03.859Z,7.39
2017-12-22T13:27:13.802Z,7.32
2017-12-22T13:28:23.248Z,7.33
2017-12-22T13:29:33.003Z,7.31
2017-12-22T13:30:42.704Z,7.29
2017-12-22T13:31:52.159Z,7.33
2017-12-22T13:33:01.609Z,7.28
2017-12-22T13:34:11.565Z,7.29
2017-12-22T13:35:21.537Z,7.31
2017-12-22T13:36:31.244Z,7.28
2017-12-22T13:37:40.962Z,7.28
2017-12-22T13:38:50.653Z,7.28
2017-12-22T13:40:00.083Z,7.28
2017-12-22T13:41:09.302Z,7.32
2017-12-22T13:42:18.735Z,7.29
2017-12-22T13:43:28.701Z,7.31
2017-12-22T13:44:38.403Z,7.33
2017-12-22T13:45:48.359Z,7.33
2017-12-22T13:46:57.793Z,7.31
2017-12-22T13:48:07.490Z,7.32
2017-12-22T13:49:16.939Z,7.28
2017-12-22T13:50:26.626Z,7.31
2017-12-22T13:51:36.600Z,7.26
2017-12-22T13:52:46.292Z,7.28
2017-12-22T13:53:56.255Z,7.29
2017-12-22T13:55:06.223Z,7.32
2017-12-22T13:56:15.657Z,7.28
2017-12-22T13:57:25.386Z,7.29
2017-12-22T13:58:35.601Z,7.28
2017-12-22T13:59:45.560Z,7.29
2017-12-22T14:00:55.511Z,7.32
2017-12-22T14:02:05.215Z,7.21
2017-12-22T14:03:15.164Z,7.21
2017-12-22T14:04:24.859Z,7.19
2017-12-22T14:05:34.823Z,7.22
2017-12-22T14:06:44.257Z,7.18
2017-12-22T14:07:53.693Z,7.21
2017-12-22T14:09:03.654Z,7.18
2017-12-22T14:10:13.636Z,7.13
2017-12-22T14:11:23.314Z,7.07
2017-12-22T14:12:33.271Z,7.11
2017-12-22T14:13:42.706Z,7.08
2017-12-22T14:14:52.669Z,7.04
2017-12-22T14:16:02.633Z,7.11
2017-12-22T14:17:12.620Z,7.03
2017-12-22T14:18:22.574Z,7.04
2017-12-22T14:19:32.270Z,7.07
2017-12-22T14:20:41.711Z,7.11
2017-12-22T14:21:51.658Z,7.01
2017-12-22T14:23:01.356Z,7.03
2017-12-22T14:24:11.057Z,7.04
2017-12-22T14:25:20.751Z,7
2017-12-22T14:26:30.710Z,7
2017-12-22T14:27:40.415Z,6.95
2017-12-22T14:28:50.154Z,6.96
2017-12-22T14:30:00.354Z,6.96
2017-12-22T14:31:10.304Z,7
2017-12-22T14:32:19.741Z,6.87
2017-12-22T14:33:29.717Z,6.93
2017-12-22T14:34:39.674Z,6.9
2017-12-22T14:35:49.373Z,6.8
2017-12-22T14:36:59.068Z,6.85
2017-12-22T14:38:08.773Z,6.89
2017-12-22T14:39:18.337Z,6.87
2017-12-22T14:40:28.397Z,6.92
2017-12-22T14:41:38.354Z,6.86
2017-12-22T14:42:48.047Z,6.75
2017-12-22T14:43:57.753Z,6.8
2017-12-22T14:45:07.501Z,6.7
2017-12-22T14:46:17.474Z,6.74
2017-12-22T14:47:27.186Z,6.71
2017-12-22T14:48:37.145Z,6.68
2017-12-22T14:49:46.842Z,6.62
2017-12-22T14:50:56.553Z,6.59
2017-12-22T14:52:06.506Z,6.59
2017-12-22T14:53:16.460Z,6.56
2017-12-22T14:54:26.164Z,6.56
2017-12-22T14:55:35.598Z,6.6
2017-12-22T14:56:45.812Z,6.53
2017-12-22T14:57:55.790Z,6.53
2017-12-22T14:59:05.235Z,6.59
2017-12-22T15:00:15.017Z,6.6
2017-12-22T15:01:24.702Z,6.57
2017-12-22T15:02:34.397Z,6.56
2017-12-22T15:03:44.091Z,6.53
2017-12-22T15:04:53.588Z,6.59
2017-12-22T15:06:03.565Z,6.52
2017-12-22T15:07:13.518Z,6.56
2017-12-22T15:08:22.972Z,6.53
2017-12-22T15:09:32.924Z,6.44
2017-12-22T15:10:42.869Z,6.43
2017-12-22T15:11:52.559Z,6.43
2017-12-22T15:13:02.259Z,6.38
2017-12-22T15:14:11.954Z,6.41
2017-12-22T15:15:21.902Z,6.35
2017-12-22T15:16:31.844Z,6.38
2017-12-22T15:17:41.370Z,6.39
2017-12-22T15:18:51.329Z,6.35
2017-12-22T15:20:01.294Z,6.31
2017-12-22T15:21:11.059Z,6.36
2017-12-22T15:22:20.519Z,6.36
2017-12-22T15:23:29.967Z,6.26
2017-12-22T15:24:39.655Z,6.26
2017-12-22T15:25:49.621Z,6.29
2017-12-22T15:26:59.437Z,6.22
2017-12-22T15:28:09.146Z,6.32
2017-12-22T15:29:18.860Z,6.29